KCVO/CVO METAR and TAF weather

Enter ICAO airport designator
Station Type Date Time Source
KCVO METAR 2023/01/29 17:56 UTC NOAA

KCVO 291756Z AUTO 02012KT 10SM CLR 01/M08 A3037 RMK AO2 SLP286 6//// T00111083 10011 21011 51021 FZRANO


Station Type Date Time Source
KCVO Decoded METAR 2023/01/29 17:56 UTC NOAA

Corvallis, Corvallis Municipal Airport, OR, United States (KCVO) 44-30N 123-17W
Jan 29, 2023 - 12:56 PM EST / 2023.01.29 1756 UTC
Wind: from the NNE (020 degrees) at 14 MPH (12 KT):0
Visibility: 10 mile(s):0
Sky conditions: clear
Temperature: 34.0 F (1.1 C)
Windchill: 24 F (-4 C):1
Dew Point: 17.1 F (-8.3 C)
Relative Humidity: 49%
Pressure (altimeter): 30.37 in. Hg (1028 hPa)
Pressure tendency: 0.06 inches (2.1 hPa) higher than three hours ago
ob: KCVO 291756Z AUTO 02012KT 10SM CLR 01/M08 A3037 RMK AO2 SLP286 6//// T00111083 10011 21011 51021 FZRANO
cycle: 18

Station Type Date Time Source
KCVO TAF UTC NOAA

Error!

Example: see airport list